sensor_id;sensor_type;location;lat;lon;timestamp;temperature;humidity
71563;DHT22;59391;52.504;13.438;2022-12-28T00:33:08;6.70;65.50
71563;DHT22;59391;52.504;13.438;2022-12-28T00:41:03;6.70;65.10
71563;DHT22;59391;52.504;13.438;2022-12-28T00:54:55;6.70;64.90
71563;DHT22;59391;52.504;13.438;2022-12-28T01:01:51;6.80;64.70
71563;DHT22;59391;52.504;13.438;2022-12-28T01:22:24;7.00;63.90
71563;DHT22;59391;52.504;13.438;2022-12-28T01:26:00;6.90;63.70
71563;DHT22;59391;52.504;13.438;2022-12-28T01:29:14;7.00;63.70
71563;DHT22;59391;52.504;13.438;2022-12-28T01:36:41;6.90;63.70
71563;DHT22;59391;52.504;13.438;2022-12-28T03:54:12;6.30;64.40
71563;DHT22;59391;52.504;13.438;2022-12-28T03:57:58;6.20;64.50
71563;DHT22;59391;52.504;13.438;2022-12-28T04:01:15;6.20;64.70
71563;DHT22;59391;52.504;13.438;2022-12-28T04:03:58;6.10;64.80
71563;DHT22;59391;52.504;13.438;2022-12-28T04:06:42;6.10;64.80
71563;DHT22;59391;52.504;13.438;2022-12-28T04:09:36;6.10;64.90
71563;DHT22;59391;52.504;13.438;2022-12-28T04:12:02;6.00;64.90
71563;DHT22;59391;52.504;13.438;2022-12-28T04:14:31;6.00;65.00
71563;DHT22;59391;52.504;13.438;2022-12-28T04:16:59;6.00;65.00
71563;DHT22;59391;52.504;13.438;2022-12-28T04:19:30;6.00;65.00
71563;DHT22;59391;52.504;13.438;2022-12-28T04:21:58;6.00;65.00
71563;DHT22;59391;52.504;13.438;2022-12-28T04:24:27;6.00;65.00
71563;DHT22;59391;52.504;13.438;2022-12-28T04:27:10;6.00;64.90
71563;DHT22;59391;52.504;13.438;2022-12-28T04:29:38;6.00;64.90
71563;DHT22;59391;52.504;13.438;2022-12-28T04:32:10;6.00;65.00
71563;DHT22;59391;52.504;13.438;2022-12-28T04:38:13;6.00;64.90
71563;DHT22;59391;52.504;13.438;2022-12-28T04:43:37;6.10;64.70
71563;DHT22;59391;52.504;13.438;2022-12-28T04:46:13;6.00;64.60
71563;DHT22;59391;52.504;13.438;2022-12-28T04:48:52;6.00;64.60
71563;DHT22;59391;52.504;13.438;2022-12-28T04:51:28;6.00;64.70
71563;DHT22;59391;52.504;13.438;2022-12-28T04:54:02;6.00;64.70
71563;DHT22;59391;52.504;13.438;2022-12-28T04:59:35;6.00;64.40
71563;DHT22;59391;52.504;13.438;2022-12-28T05:02:12;6.00;64.40
71563;DHT22;59391;52.504;13.438;2022-12-28T05:05:11;6.00;64.40
71563;DHT22;59391;52.504;13.438;2022-12-28T05:07:48;6.00;64.30
71563;DHT22;59391;52.504;13.438;2022-12-28T05:13:50;6.10;64.40
71563;DHT22;59391;52.504;13.438;2022-12-28T05:16:26;6.10;64.10
71563;DHT22;59391;52.504;13.438;2022-12-28T05:19:24;6.10;64.00
71563;DHT22;59391;52.504;13.438;2022-12-28T05:21:57;6.10;64.10
71563;DHT22;59391;52.504;13.438;2022-12-28T05:24:48;6.10;64.20
71563;DHT22;59391;52.504;13.438;2022-12-28T05:27:25;6.10;64.10
71563;DHT22;59391;52.504;13.438;2022-12-28T05:30:15;6.10;64.00
71563;DHT22;59391;52.504;13.438;2022-12-28T05:32:47;6.10;63.90
71563;DHT22;59391;52.504;13.438;2022-12-28T05:36:08;6.10;63.80
71563;DHT22;59391;52.504;13.438;2022-12-28T05:39:12;6.20;63.80
71563;DHT22;59391;52.504;13.438;2022-12-28T05:41:43;6.10;64.00
71563;DHT22;59391;52.504;13.438;2022-12-28T05:44:26;6.10;63.80
71563;DHT22;59391;52.504;13.438;2022-12-28T05:47:38;6.20;64.00
71563;DHT22;59391;52.504;13.438;2022-12-28T05:50:20;6.20;64.00
71563;DHT22;59391;52.504;13.438;2022-12-28T05:56:43;6.20;63.80
71563;DHT22;59391;52.504;13.438;2022-12-28T05:59:51;6.20;63.60
71563;DHT22;59391;52.504;13.438;2022-12-28T06:02:32;6.20;63.80
71563;DHT22;59391;52.504;13.438;2022-12-28T06:05:46;6.20;63.80
71563;DHT22;59391;52.504;13.438;2022-12-28T06:15:45;6.30;63.70
71563;DHT22;59391;52.504;13.438;2022-12-28T06:18:46;6.20;63.50
71563;DHT22;59391;52.504;13.438;2022-12-28T06:21:46;6.30;63.60
71563;DHT22;59391;52.504;13.438;2022-12-28T06:28:35;6.30;63.50
71563;DHT22;59391;52.504;13.438;2022-12-28T06:31:30;6.30;63.40
71563;DHT22;59391;52.504;13.438;2022-12-28T06:34:46;6.40;63.40
71563;DHT22;59391;52.504;13.438;2022-12-28T06:37:42;6.40;63.30
71563;DHT22;59391;52.504;13.438;2022-12-28T06:44:22;6.40;63.30
71563;DHT22;59391;52.504;13.438;2022-12-28T06:47:30;6.50;64.00
71563;DHT22;59391;52.504;13.438;2022-12-28T06:50:17;6.50;66.50
71563;DHT22;59391;52.504;13.438;2022-12-28T06:52:55;6.50;68.20
71563;DHT22;59391;52.504;13.438;2022-12-28T06:55:24;6.40;69.10
71563;DHT22;59391;52.504;13.438;2022-12-28T06:58:21;6.30;69.90
71563;DHT22;59391;52.504;13.438;2022-12-28T07:00:52;6.30;70.40
71563;DHT22;59391;52.504;13.438;2022-12-28T07:03:26;6.10;70.80
71563;DHT22;59391;52.504;13.438;2022-12-28T07:06:43;6.00;71.80
71563;DHT22;59391;52.504;13.438;2022-12-28T07:09:20;5.90;72.70
71563;DHT22;59391;52.504;13.438;2022-12-28T07:11:55;5.90;73.20
71563;DHT22;59391;52.504;13.438;2022-12-28T07:14:24;5.80;73.50
71563;DHT22;59391;52.504;13.438;2022-12-28T07:16:53;5.80;73.90
71563;DHT22;59391;52.504;13.438;2022-12-28T07:19:22;5.80;73.90
71563;DHT22;59391;52.504;13.438;2022-12-28T07:22:06;5.80;74.20
71563;DHT22;59391;52.504;13.438;2022-12-28T07:24:43;5.80;74.60
71563;DHT22;59391;52.504;13.438;2022-12-28T07:27:25;5.80;74.80
71563;DHT22;59391;52.504;13.438;2022-12-28T07:29:53;5.90;74.70
71563;DHT22;59391;52.504;13.438;2022-12-28T07:32:29;5.90;74.70
71563;DHT22;59391;52.504;13.438;2022-12-28T07:37:42;6.00;74.50
71563;DHT22;59391;52.504;13.438;2022-12-28T07:40:35;6.00;74.00
71563;DHT22;59391;52.504;13.438;2022-12-28T07:43:35;6.00;74.40
71563;DHT22;59391;52.504;13.438;2022-12-28T07:49:04;6.10;73.60
71563;DHT22;59391;52.504;13.438;2022-12-28T07:51:46;6.20;73.90
71563;DHT22;59391;52.504;13.438;2022-12-28T07:54:13;6.20;74.30
71563;DHT22;59391;52.504;13.438;2022-12-28T07:56:39;6.20;74.20
71563;DHT22;59391;52.504;13.438;2022-12-28T07:59:05;6.20;74.20
71563;DHT22;59391;52.504;13.438;2022-12-28T08:01:33;6.30;74.20
71563;DHT22;59391;52.504;13.438;2022-12-28T08:04:02;6.30;74.30
71563;DHT22;59391;52.504;13.438;2022-12-28T08:06:33;6.30;74.20
71563;DHT22;59391;52.504;13.438;2022-12-28T08:09:01;6.30;74.50
71563;DHT22;59391;52.504;13.438;2022-12-28T08:11:28;6.30;74.20
71563;DHT22;59391;52.504;13.438;2022-12-28T08:14:00;6.30;74.40
71563;DHT22;59391;52.504;13.438;2022-12-28T08:16:35;6.30;74.80
71563;DHT22;59391;52.504;13.438;2022-12-28T08:19:06;6.30;74.70
71563;DHT22;59391;52.504;13.438;2022-12-28T08:21:45;6.30;74.60
71563;DHT22;59391;52.504;13.438;2022-12-28T08:24:15;6.30;75.20
71563;DHT22;59391;52.504;13.438;2022-12-28T08:26:46;6.30;75.30
71563;DHT22;59391;52.504;13.438;2022-12-28T08:29:17;6.30;75.30
71563;DHT22;59391;52.504;13.438;2022-12-28T08:31:49;6.30;75.70
71563;DHT22;59391;52.504;13.438;2022-12-28T08:34:18;6.30;76.10
71563;DHT22;59391;52.504;13.438;2022-12-28T08:36:55;6.30;76.00
71563;DHT22;59391;52.504;13.438;2022-12-28T08:39:20;6.30;76.30
71563;DHT22;59391;52.504;13.438;2022-12-28T08:42:41;6.30;76.00
71563;DHT22;59391;52.504;13.438;2022-12-28T08:45:06;6.30;76.10
71563;DHT22;59391;52.504;13.438;2022-12-28T08:47:32;6.40;75.70
71563;DHT22;59391;52.504;13.438;2022-12-28T08:49:58;6.50;75.60
71563;DHT22;59391;52.504;13.438;2022-12-28T08:52:23;6.50;75.50
71563;DHT22;59391;52.504;13.438;2022-12-28T08:54:49;6.50;75.10
71563;DHT22;59391;52.504;13.438;2022-12-28T08:57:15;6.50;74.90
71563;DHT22;59391;52.504;13.438;2022-12-28T08:59:44;6.60;74.30
71563;DHT22;59391;52.504;13.438;2022-12-28T09:02:14;6.70;74.40
71563;DHT22;59391;52.504;13.438;2022-12-28T09:05:04;6.80;74.10
71563;DHT22;59391;52.504;13.438;2022-12-28T09:07:52;6.80;73.70
71563;DHT22;59391;52.504;13.438;2022-12-28T09:10:28;6.90;74.40
71563;DHT22;59391;52.504;13.438;2022-12-28T09:13:00;6.90;73.40
71563;DHT22;59391;52.504;13.438;2022-12-28T09:15:54;7.00;73.20
71563;DHT22;59391;52.504;13.438;2022-12-28T09:18:24;7.00;72.40
71563;DHT22;59391;52.504;13.438;2022-12-28T09:20:52;7.00;72.40
71563;DHT22;59391;52.504;13.438;2022-12-28T09:23:18;7.00;72.80
71563;DHT22;59391;52.504;13.438;2022-12-28T09:25:43;7.00;72.90
71563;DHT22;59391;52.504;13.438;2022-12-28T09:31:42;7.10;72.70
71563;DHT22;59391;52.504;13.438;2022-12-28T09:34:10;7.10;73.00
71563;DHT22;59391;52.504;13.438;2022-12-28T09:36:43;7.10;72.60
71563;DHT22;59391;52.504;13.438;2022-12-28T09:39:19;7.10;73.30
71563;DHT22;59391;52.504;13.438;2022-12-28T09:42:30;7.10;73.70
71563;DHT22;59391;52.504;13.438;2022-12-28T09:45:09;7.10;73.40
71563;DHT22;59391;52.504;13.438;2022-12-28T09:51:34;7.20;73.00
71563;DHT22;59391;52.504;13.438;2022-12-28T09:54:32;7.30;73.20
71563;DHT22;59391;52.504;13.438;2022-12-28T09:57:17;7.30;73.50
71563;DHT22;59391;52.504;13.438;2022-12-28T09:59:48;7.40;72.90
71563;DHT22;59391;52.504;13.438;2022-12-28T10:02:26;7.40;72.60
71563;DHT22;59391;52.504;13.438;2022-12-28T10:04:58;7.50;72.10
71563;DHT22;59391;52.504;13.438;2022-12-28T10:07:24;7.50;72.20
71563;DHT22;59391;52.504;13.438;2022-12-28T10:09:51;7.50;72.40
71563;DHT22;59391;52.504;13.438;2022-12-28T10:12:20;7.60;71.80
71563;DHT22;59391;52.504;13.438;2022-12-28T10:14:52;7.60;71.80
71563;DHT22;59391;52.504;13.438;2022-12-28T10:17:21;7.70;72.40
71563;DHT22;59391;52.504;13.438;2022-12-28T10:19:54;7.70;72.10
71563;DHT22;59391;52.504;13.438;2022-12-28T10:22:23;7.80;72.10
71563;DHT22;59391;52.504;13.438;2022-12-28T10:25:00;7.90;71.50
71563;DHT22;59391;52.504;13.438;2022-12-28T10:27:29;7.90;70.80
71563;DHT22;59391;52.504;13.438;2022-12-28T10:29:59;8.00;71.80
71563;DHT22;59391;52.504;13.438;2022-12-28T10:32:26;8.00;71.40
71563;DHT22;59391;52.504;13.438;2022-12-28T10:35:21;8.00;72.00
71563;DHT22;59391;52.504;13.438;2022-12-28T10:37:50;8.00;72.00
71563;DHT22;59391;52.504;13.438;2022-12-28T10:40:30;8.00;72.00
71563;DHT22;59391;52.504;13.438;2022-12-28T10:42:59;8.00;73.30
71563;DHT22;59391;52.504;13.438;2022-12-28T10:45:37;8.00;73.30
71563;DHT22;59391;52.504;13.438;2022-12-28T10:48:17;7.90;73.70
71563;DHT22;59391;52.504;13.438;2022-12-28T10:50:55;7.80;74.00
71563;DHT22;59391;52.504;13.438;2022-12-28T10:53:44;7.80;74.30
71563;DHT22;59391;52.504;13.438;2022-12-28T10:58:39;7.80;74.40
71563;DHT22;59391;52.504;13.438;2022-12-28T11:01:18;7.90;74.50
71563;DHT22;59391;52.504;13.438;2022-12-28T11:06:22;8.00;74.20
71563;DHT22;59391;52.504;13.438;2022-12-28T11:09:15;8.00;74.00
71563;DHT22;59391;52.504;13.438;2022-12-28T11:11:46;8.10;73.90
71563;DHT22;59391;52.504;13.438;2022-12-28T11:14:34;8.10;73.70
71563;DHT22;59391;52.504;13.438;2022-12-28T11:17:25;8.10;73.70
71563;DHT22;59391;52.504;13.438;2022-12-28T11:20:02;8.20;73.00
71563;DHT22;59391;52.504;13.438;2022-12-28T11:22:33;8.30;73.20
71563;DHT22;59391;52.504;13.438;2022-12-28T11:24:59;8.40;72.20
71563;DHT22;59391;52.504;13.438;2022-12-28T11:27:27;8.40;72.40
71563;DHT22;59391;52.504;13.438;2022-12-28T11:29:54;8.40;72.40
71563;DHT22;59391;52.504;13.438;2022-12-28T11:32:26;8.50;71.80
71563;DHT22;59391;52.504;13.438;2022-12-28T11:34:58;8.60;72.30
71563;DHT22;59391;52.504;13.438;2022-12-28T11:37:24;8.70;71.40
71563;DHT22;59391;52.504;13.438;2022-12-28T11:39:51;8.80;71.70
71563;DHT22;59391;52.504;13.438;2022-12-28T11:45:12;8.90;71.00
71563;DHT22;59391;52.504;13.438;2022-12-28T11:47:39;9.00;70.30
71563;DHT22;59391;52.504;13.438;2022-12-28T11:53:18;9.10;70.30
71563;DHT22;59391;52.504;13.438;2022-12-28T11:56:23;9.20;69.60
71563;DHT22;59391;52.504;13.438;2022-12-28T11:59:10;9.20;69.30
71563;DHT22;59391;52.504;13.438;2022-12-28T12:01:57;9.30;69.30
71563;DHT22;59391;52.504;13.438;2022-12-28T12:04:35;9.40;69.30
71563;DHT22;59391;52.504;13.438;2022-12-28T12:14:56;9.50;67.60
71563;DHT22;59391;52.504;13.438;2022-12-28T12:17:31;9.50;68.50
71563;DHT22;59391;52.504;13.438;2022-12-28T12:20:14;9.70;68.60
71563;DHT22;59391;52.504;13.438;2022-12-28T12:22:51;9.80;67.70
71563;DHT22;59391;52.504;13.438;2022-12-28T12:25:38;9.80;66.90
71563;DHT22;59391;52.504;13.438;2022-12-28T12:31:23;10.00;66.20
71563;DHT22;59391;52.504;13.438;2022-12-28T12:34:02;10.10;66.70
71563;DHT22;59391;52.504;13.438;2022-12-28T12:36:42;10.20;66.70
71563;DHT22;59391;52.504;13.438;2022-12-28T12:39:45;10.50;67.50
71563;DHT22;59391;52.504;13.438;2022-12-28T12:43:02;10.80;65.40
71563;DHT22;59391;52.504;13.438;2022-12-28T12:55:39;10.90;63.10
71563;DHT22;59391;52.504;13.438;2022-12-28T12:58:26;10.90;63.60
71563;DHT22;59391;52.504;13.438;2022-12-28T13:01:36;10.80;64.20
71563;DHT22;59391;52.504;13.438;2022-12-28T13:04:25;10.80;64.50
71563;DHT22;59391;52.504;13.438;2022-12-28T13:06:59;10.70;63.90
71563;DHT22;59391;52.504;13.438;2022-12-28T13:09:31;10.70;64.70
71563;DHT22;59391;52.504;13.438;2022-12-28T13:11:59;10.80;64.90
71563;DHT22;59391;52.504;13.438;2022-12-28T13:14:27;10.80;64.10
71563;DHT22;59391;52.504;13.438;2022-12-28T13:16:56;10.90;63.90
71563;DHT22;59391;52.504;13.438;2022-12-28T13:19:25;11.10;63.50
71563;DHT22;59391;52.504;13.438;2022-12-28T13:21:53;11.20;63.30
71563;DHT22;59391;52.504;13.438;2022-12-28T13:24:23;11.30;63.50
71563;DHT22;59391;52.504;13.438;2022-12-28T13:26:50;11.50;62.40
71563;DHT22;59391;52.504;13.438;2022-12-28T13:29:22;11.70;62.10
71563;DHT22;59391;52.504;13.438;2022-12-28T13:31:49;11.80;61.50
71563;DHT22;59391;52.504;13.438;2022-12-28T13:34:27;11.90;60.30
71563;DHT22;59391;52.504;13.438;2022-12-28T13:36:57;12.00;60.40
71563;DHT22;59391;52.504;13.438;2022-12-28T13:39:26;12.10;59.40
71563;DHT22;59391;52.504;13.438;2022-12-28T13:41:55;12.10;59.90
71563;DHT22;59391;52.504;13.438;2022-12-28T13:44:24;12.10;59.80
71563;DHT22;59391;52.504;13.438;2022-12-28T13:47:16;12.10;59.40
71563;DHT22;59391;52.504;13.438;2022-12-28T13:49:54;12.00;59.80
71563;DHT22;59391;52.504;13.438;2022-12-28T13:52:37;12.00;60.00
71563;DHT22;59391;52.504;13.438;2022-12-28T13:55:29;11.90;59.70
71563;DHT22;59391;52.504;13.438;2022-12-28T13:58:02;11.80;59.90
71563;DHT22;59391;52.504;13.438;2022-12-28T14:00:35;11.70;60.50
71563;DHT22;59391;52.504;13.438;2022-12-28T14:03:06;11.60;60.50
71563;DHT22;59391;52.504;13.438;2022-12-28T14:05:34;11.40;60.90
71563;DHT22;59391;52.504;13.438;2022-12-28T14:08:00;11.30;61.30
71563;DHT22;59391;52.504;13.438;2022-12-28T14:10:30;11.30;61.40
71563;DHT22;59391;52.504;13.438;2022-12-28T14:12:56;11.20;62.00
71563;DHT22;59391;52.504;13.438;2022-12-28T14:15:23;11.10;62.20
71563;DHT22;59391;52.504;13.438;2022-12-28T14:17:49;11.10;62.50
71563;DHT22;59391;52.504;13.438;2022-12-28T14:20:16;11.00;62.50
71563;DHT22;59391;52.504;13.438;2022-12-28T14:22:42;11.00;62.70
71563;DHT22;59391;52.504;13.438;2022-12-28T14:25:14;11.00;62.80
71563;DHT22;59391;52.504;13.438;2022-12-28T14:28:02;10.90;63.20
71563;DHT22;59391;52.504;13.438;2022-12-28T14:30:37;10.90;63.20
71563;DHT22;59391;52.504;13.438;2022-12-28T14:33:19;10.80;63.50
71563;DHT22;59391;52.504;13.438;2022-12-28T14:35:49;10.80;63.70
71563;DHT22;59391;52.504;13.438;2022-12-28T14:38:20;10.70;63.70
71563;DHT22;59391;52.504;13.438;2022-12-28T14:40:59;10.70;63.90
71563;DHT22;59391;52.504;13.438;2022-12-28T14:43:31;10.70;63.80
71563;DHT22;59391;52.504;13.438;2022-12-28T14:52:36;10.50;64.10
71563;DHT22;59391;52.504;13.438;2022-12-28T14:54:48;10.50;64.10
71563;DHT22;59391;52.504;13.438;2022-12-28T14:57:40;10.50;64.10
71563;DHT22;59391;52.504;13.438;2022-12-28T15:00:28;10.50;64.20
71563;DHT22;59391;52.504;13.438;2022-12-28T15:03:10;10.50;64.30
71563;DHT22;59391;52.504;13.438;2022-12-28T15:05:43;10.40;64.40
71563;DHT22;59391;52.504;13.438;2022-12-28T15:08:11;10.40;64.60
71563;DHT22;59391;52.504;13.438;2022-12-28T15:10:53;10.40;64.70
71563;DHT22;59391;52.504;13.438;2022-12-28T15:13:23;10.40;64.80
71563;DHT22;59391;52.504;13.438;2022-12-28T15:15:54;10.30;64.90
71563;DHT22;59391;52.504;13.438;2022-12-28T15:18:24;10.30;65.00
71563;DHT22;59391;52.504;13.438;2022-12-28T15:20:54;10.40;65.00
71563;DHT22;59391;52.504;13.438;2022-12-28T15:23:21;10.40;65.00
71563;DHT22;59391;52.504;13.438;2022-12-28T15:25:47;10.40;65.00
71563;DHT22;59391;52.504;13.438;2022-12-28T15:28:14;10.40;64.90
71563;DHT22;59391;52.504;13.438;2022-12-28T15:30:44;10.40;65.00
71563;DHT22;59391;52.504;13.438;2022-12-28T15:33:12;10.40;65.00
71563;DHT22;59391;52.504;13.438;2022-12-28T15:35:38;10.40;65.00
71563;DHT22;59391;52.504;13.438;2022-12-28T15:38:03;10.40;65.10
71563;DHT22;59391;52.504;13.438;2022-12-28T15:40:29;10.40;65.10
71563;DHT22;59391;52.504;13.438;2022-12-28T15:42:55;10.40;65.00
71563;DHT22;59391;52.504;13.438;2022-12-28T15:45:21;10.40;65.00
71563;DHT22;59391;52.504;13.438;2022-12-28T15:47:48;10.30;64.90
71563;DHT22;59391;52.504;13.438;2022-12-28T15:50:20;10.30;65.00
71563;DHT22;59391;52.504;13.438;2022-12-28T15:52:46;10.40;65.00
71563;DHT22;59391;52.504;13.438;2022-12-28T15:55:12;10.30;64.80
71563;DHT22;59391;52.504;13.438;2022-12-28T15:57:38;10.40;64.70
71563;DHT22;59391;52.504;13.438;2022-12-28T16:00:04;10.40;64.70
71563;DHT22;59391;52.504;13.438;2022-12-28T16:02:30;10.40;64.60
71563;DHT22;59391;52.504;13.438;2022-12-28T16:04:56;10.30;64.40
71563;DHT22;59391;52.504;13.438;2022-12-28T16:07:22;10.30;64.40
71563;DHT22;59391;52.504;13.438;2022-12-28T16:09:48;10.30;64.40
71563;DHT22;59391;52.504;13.438;2022-12-28T16:12:16;10.30;64.10
71563;DHT22;59391;52.504;13.438;2022-12-28T16:14:45;10.30;64.20
71563;DHT22;59391;52.504;13.438;2022-12-28T16:17:12;10.40;64.00
71563;DHT22;59391;52.504;13.438;2022-12-28T16:19:38;10.40;63.80
71563;DHT22;59391;52.504;13.438;2022-12-28T16:22:04;10.40;63.70
71563;DHT22;59391;52.504;13.438;2022-12-28T16:24:29;10.40;63.30
71563;DHT22;59391;52.504;13.438;2022-12-28T16:26:55;10.40;63.30
71563;DHT22;59391;52.504;13.438;2022-12-28T16:29:23;10.40;63.20
71563;DHT22;59391;52.504;13.438;2022-12-28T16:31:51;10.40;63.10
71563;DHT22;59391;52.504;13.438;2022-12-28T16:34:20;10.40;63.00
71563;DHT22;59391;52.504;13.438;2022-12-28T16:36:46;10.40;62.90
71563;DHT22;59391;52.504;13.438;2022-12-28T16:39:15;10.40;62.80
71563;DHT22;59391;52.504;13.438;2022-12-28T16:41:42;10.40;62.80
71563;DHT22;59391;52.504;13.438;2022-12-28T16:44:17;10.40;62.80
71563;DHT22;59391;52.504;13.438;2022-12-28T16:46:47;10.40;62.50
71563;DHT22;59391;52.504;13.438;2022-12-28T16:49:16;10.40;62.50
71563;DHT22;59391;52.504;13.438;2022-12-28T16:51:44;10.40;62.50
71563;DHT22;59391;52.504;13.438;2022-12-28T16:54:18;10.40;62.40
71563;DHT22;59391;52.504;13.438;2022-12-28T16:56:47;10.40;62.50
71563;DHT22;59391;52.504;13.438;2022-12-28T16:59:22;10.50;62.50
71563;DHT22;59391;52.504;13.438;2022-12-28T17:01:55;10.50;62.40
71563;DHT22;59391;52.504;13.438;2022-12-28T17:04:21;10.60;62.10
71563;DHT22;59391;52.504;13.438;2022-12-28T17:06:49;10.60;62.10
71563;DHT22;59391;52.504;13.438;2022-12-28T17:09:16;10.60;62.00
71563;DHT22;59391;52.504;13.438;2022-12-28T17:11:46;10.60;62.30
71563;DHT22;59391;52.504;13.438;2022-12-28T17:14:12;10.60;62.40
71563;DHT22;59391;52.504;13.438;2022-12-28T17:16:38;10.60;62.20
71563;DHT22;59391;52.504;13.438;2022-12-28T17:19:05;10.60;62.50
71563;DHT22;59391;52.504;13.438;2022-12-28T17:21:33;10.60;63.50
71563;DHT22;59391;52.504;13.438;2022-12-28T17:24:00;10.60;65.90
71563;DHT22;59391;52.504;13.438;2022-12-28T17:26:25;10.50;66.80
71563;DHT22;59391;52.504;13.438;2022-12-28T17:28:51;10.40;67.70
71563;DHT22;59391;52.504;13.438;2022-12-28T17:31:19;10.30;68.20
71563;DHT22;59391;52.504;13.438;2022-12-28T17:33:51;10.20;68.80
71563;DHT22;59391;52.504;13.438;2022-12-28T17:36:19;10.10;69.20
71563;DHT22;59391;52.504;13.438;2022-12-28T17:38:49;10.00;69.10
71563;DHT22;59391;52.504;13.438;2022-12-28T17:41:59;10.00;68.80
71563;DHT22;59391;52.504;13.438;2022-12-28T17:44:09;9.90;69.30
71563;DHT22;59391;52.504;13.438;2022-12-28T17:46:36;9.80;69.80
71563;DHT22;59391;52.504;13.438;2022-12-28T17:49:07;9.80;69.10
71563;DHT22;59391;52.504;13.438;2022-12-28T17:51:38;9.80;69.50
71563;DHT22;59391;52.504;13.438;2022-12-28T17:54:12;9.90;69.00
71563;DHT22;59391;52.504;13.438;2022-12-28T17:56:40;9.90;68.60
71563;DHT22;59391;52.504;13.438;2022-12-28T17:59:11;9.90;68.30
71563;DHT22;59391;52.504;13.438;2022-12-28T18:01:38;9.90;68.30
71563;DHT22;59391;52.504;13.438;2022-12-28T18:04:04;9.90;68.00
71563;DHT22;59391;52.504;13.438;2022-12-28T18:06:30;9.90;68.10
71563;DHT22;59391;52.504;13.438;2022-12-28T18:08:56;10.00;67.70
71563;DHT22;59391;52.504;13.438;2022-12-28T18:11:22;10.00;66.60
71563;DHT22;59391;52.504;13.438;2022-12-28T18:13:47;10.00;66.40
71563;DHT22;59391;52.504;13.438;2022-12-28T18:16:16;10.10;66.70
71563;DHT22;59391;52.504;13.438;2022-12-28T18:18:43;10.10;67.00
71563;DHT22;59391;52.504;13.438;2022-12-28T18:21:12;10.10;67.40
71563;DHT22;59391;52.504;13.438;2022-12-28T18:23:39;10.10;68.00
71563;DHT22;59391;52.504;13.438;2022-12-28T18:26:07;10.10;67.80
71563;DHT22;59391;52.504;13.438;2022-12-28T18:28:47;10.10;67.10
71563;DHT22;59391;52.504;13.438;2022-12-28T18:31:13;10.10;67.20
71563;DHT22;59391;52.504;13.438;2022-12-28T18:33:38;10.10;67.20
71563;DHT22;59391;52.504;13.438;2022-12-28T18:36:06;10.10;66.50
71563;DHT22;59391;52.504;13.438;2022-12-28T18:38:36;10.10;65.30
71563;DHT22;59391;52.504;13.438;2022-12-28T18:41:03;10.10;65.20
71563;DHT22;59391;52.504;13.438;2022-12-28T18:43:32;10.10;65.30
71563;DHT22;59391;52.504;13.438;2022-12-28T18:45:59;10.20;64.60
71563;DHT22;59391;52.504;13.438;2022-12-28T18:48:30;10.20;64.50
71563;DHT22;59391;52.504;13.438;2022-12-28T18:51:01;10.20;65.20
71563;DHT22;59391;52.504;13.438;2022-12-28T18:53:32;10.30;65.90
71563;DHT22;59391;52.504;13.438;2022-12-28T18:56:03;10.30;65.90
71563;DHT22;59391;52.504;13.438;2022-12-28T18:58:32;10.30;65.60
71563;DHT22;59391;52.504;13.438;2022-12-28T19:01:11;10.30;65.40
71563;DHT22;59391;52.504;13.438;2022-12-28T19:03:39;10.30;64.50
71563;DHT22;59391;52.504;13.438;2022-12-28T19:06:07;10.30;65.20
71563;DHT22;59391;52.504;13.438;2022-12-28T19:08:37;10.30;66.10
71563;DHT22;59391;52.504;13.438;2022-12-28T19:11:05;10.30;66.10
71563;DHT22;59391;52.504;13.438;2022-12-28T19:13:34;10.30;66.50
71563;DHT22;59391;52.504;13.438;2022-12-28T19:16:06;10.20;67.60
71563;DHT22;59391;52.504;13.438;2022-12-28T19:18:35;10.10;68.20
71563;DHT22;59391;52.504;13.438;2022-12-28T19:21:16;10.10;68.70
71563;DHT22;59391;52.504;13.438;2022-12-28T19:23:52;10.00;69.90
71563;DHT22;59391;52.504;13.438;2022-12-28T19:26:19;9.90;70.50
71563;DHT22;59391;52.504;13.438;2022-12-28T19:28:46;9.80;70.90
71563;DHT22;59391;52.504;13.438;2022-12-28T19:31:12;9.70;71.90
71563;DHT22;59391;52.504;13.438;2022-12-28T19:33:38;9.50;72.20
71563;DHT22;59391;52.504;13.438;2022-12-28T19:36:04;9.40;73.10
71563;DHT22;59391;52.504;13.438;2022-12-28T19:38:30;9.40;73.70
71563;DHT22;59391;52.504;13.438;2022-12-28T19:40:56;9.30;73.80
71563;DHT22;59391;52.504;13.438;2022-12-28T19:43:26;9.20;74.40
71563;DHT22;59391;52.504;13.438;2022-12-28T19:46:03;9.20;75.20
71563;DHT22;59391;52.504;13.438;2022-12-28T19:48:30;9.10;75.60
71563;DHT22;59391;52.504;13.438;2022-12-28T19:50:55;9.10;75.70
71563;DHT22;59391;52.504;13.438;2022-12-28T19:53:21;9.10;76.10
71563;DHT22;59391;52.504;13.438;2022-12-28T19:55:47;9.10;76.10
71563;DHT22;59391;52.504;13.438;2022-12-28T19:58:12;9.10;76.40
71563;DHT22;59391;52.504;13.438;2022-12-28T20:00:38;9.10;76.40
71563;DHT22;59391;52.504;13.438;2022-12-28T20:03:04;9.00;76.80
71563;DHT22;59391;52.504;13.438;2022-12-28T20:05:30;9.00;76.80
71563;DHT22;59391;52.504;13.438;2022-12-28T20:07:58;9.00;76.60
71563;DHT22;59391;52.504;13.438;2022-12-28T20:10:24;9.00;76.60
71563;DHT22;59391;52.504;13.438;2022-12-28T20:12:49;9.00;76.90
71563;DHT22;59391;52.504;13.438;2022-12-28T20:15:15;9.10;77.00
71563;DHT22;59391;52.504;13.438;2022-12-28T20:17:41;9.10;77.30
71563;DHT22;59391;52.504;13.438;2022-12-28T20:20:10;9.10;77.00
71563;DHT22;59391;52.504;13.438;2022-12-28T20:22:39;9.10;77.40
71563;DHT22;59391;52.504;13.438;2022-12-28T20:25:08;9.10;77.40
71563;DHT22;59391;52.504;13.438;2022-12-28T20:27:37;9.20;77.30
71563;DHT22;59391;52.504;13.438;2022-12-28T20:30:03;9.20;77.40
71563;DHT22;59391;52.504;13.438;2022-12-28T20:32:29;9.20;76.80
71563;DHT22;59391;52.504;13.438;2022-12-28T20:34:54;9.20;76.70
71563;DHT22;59391;52.504;13.438;2022-12-28T20:37:23;9.30;75.90
71563;DHT22;59391;52.504;13.438;2022-12-28T20:39:48;9.30;76.30
71563;DHT22;59391;52.504;13.438;2022-12-28T20:42:14;9.30;76.00
71563;DHT22;59391;52.504;13.438;2022-12-28T20:45:01;9.30;75.90
71563;DHT22;59391;52.504;13.438;2022-12-28T20:47:27;9.30;76.00
71563;DHT22;59391;52.504;13.438;2022-12-28T20:49:52;9.30;75.90
71563;DHT22;59391;52.504;13.438;2022-12-28T20:52:18;9.30;76.00
71563;DHT22;59391;52.504;13.438;2022-12-28T20:54:45;9.30;76.10
71563;DHT22;59391;52.504;13.438;2022-12-28T20:57:17;9.40;75.60
71563;DHT22;59391;52.504;13.438;2022-12-28T20:59:46;9.40;75.50
71563;DHT22;59391;52.504;13.438;2022-12-28T21:02:11;9.40;75.40
71563;DHT22;59391;52.504;13.438;2022-12-28T21:04:37;9.40;75.30